createdAt,value
2019-02-17T00:00:12.166Z,77.45
2019-02-17T00:01:12.127Z,76.59
2019-02-17T00:02:12.084Z,76.40
2019-02-17T00:03:12.053Z,76.12
2019-02-17T00:04:12.009Z,76.03
2019-02-17T00:05:11.967Z,75.45
2019-02-17T00:06:11.929Z,75.26
2019-02-17T00:07:11.881Z,74.22
2019-02-17T00:08:11.845Z,74.22
2019-02-17T00:09:11.804Z,73.55
2019-02-17T00:10:11.760Z,73.08
2019-02-17T00:11:11.726Z,71.37
2019-02-17T00:12:11.691Z,70.42
2019-02-17T00:13:11.642Z,70.89
2019-02-17T00:14:11.598Z,71.37
2019-02-17T00:15:11.562Z,71.46
2019-02-17T00:16:11.521Z,71.84
2019-02-17T00:17:11.483Z,71.56
2019-02-17T00:18:11.451Z,73.27
2019-02-17T00:19:11.395Z,73.84
2019-02-17T00:20:11.357Z,74.16
2019-02-17T00:21:11.317Z,74.35
2019-02-17T00:22:11.274Z,75.40
2019-02-17T00:23:11.284Z,76.06
2019-02-17T00:24:11.197Z,77.49
2019-02-17T00:25:11.158Z,78.25
2019-02-17T00:26:11.119Z,77.97
2019-02-17T00:27:11.072Z,77.77
2019-02-17T00:28:11.033Z,79.49
2019-02-17T00:29:10.994Z,79.96
2019-02-17T00:30:10.961Z,79.30
2019-02-17T00:31:10.910Z,79.52
2019-02-17T00:32:10.873Z,80.24
2019-02-17T00:33:10.830Z,80.91
2019-02-17T00:34:10.788Z,81.14
2019-02-17T00:35:10.753Z,81.58
2019-02-17T00:36:10.711Z,81.96
2019-02-17T00:37:10.676Z,82.43
2019-02-17T00:38:10.632Z,82.86
2019-02-17T00:39:10.585Z,83.33
2019-02-17T00:40:10.547Z,83.04
2019-02-17T00:41:10.507Z,83.39
2019-02-17T00:42:10.464Z,83.33
2019-02-17T00:43:10.429Z,82.86
2019-02-17T00:44:10.390Z,83.04
2019-02-17T00:45:10.347Z,84.09
2019-02-17T00:46:10.303Z,84.95
2019-02-17T00:47:10.267Z,84.76
2019-02-17T00:48:10.227Z,85.04
2019-02-17T00:49:10.190Z,85.90
2019-02-17T00:50:10.150Z,86.57
2019-02-17T00:51:10.100Z,87.23
2019-02-17T00:52:10.063Z,87.32
2019-02-17T00:53:10.023Z,88.18
2019-02-17T00:54:09.981Z,88.37
2019-02-17T00:55:09.949Z,88.94
2019-02-17T00:56:09.904Z,89.32
2019-02-17T00:57:09.867Z,88.66
2019-02-17T00:58:09.826Z,90.37
2019-02-17T00:59:10.531Z,90.37
2019-02-17T01:00:09.739Z,90.66
2019-02-17T01:01:09.705Z,91.70
2019-02-17T01:02:09.667Z,91.80
2019-02-17T01:03:09.625Z,92.46
2019-02-17T01:04:09.582Z,93.04
2019-02-17T01:05:09.546Z,92.70
2019-02-17T01:06:09.502Z,92.89
2019-02-17T01:07:09.465Z,92.84
2019-02-17T01:08:09.425Z,93.70
2019-02-17T01:09:09.386Z,92.08
2019-02-17T01:10:09.347Z,92.46
2019-02-17T01:11:09.299Z,90.84
2019-02-17T01:12:09.262Z,91.13
2019-02-17T01:13:09.222Z,90.47
2019-02-17T01:14:09.179Z,89.09
2019-02-17T01:15:09.145Z,88.71
2019-02-17T01:16:09.103Z,91.08
2019-02-17T01:17:09.060Z,88.61
2019-02-17T01:18:09.018Z,87.57
2019-02-17T01:19:08.984Z,88.23
2019-02-17T01:20:08.941Z,89.28
2019-02-17T01:21:08.902Z,88.61
2019-02-17T01:22:08.865Z,89.37
2019-02-17T01:23:08.820Z,87.95
2019-02-17T01:24:08.780Z,84.52
2019-02-17T01:25:08.740Z,83.91
2019-02-17T01:26:08.697Z,83.91
2019-02-17T01:27:08.661Z,83.82
2019-02-17T01:28:08.619Z,86.86
2019-02-17T01:29:08.578Z,84.10
2019-02-17T01:30:08.540Z,82.49
2019-02-17T01:31:08.620Z,84.10
2019-02-17T01:32:08.456Z,85.72
2019-02-17T01:33:08.417Z,86.76
2019-02-17T01:34:08.378Z,84.86
2019-02-17T01:35:08.335Z,85.15
2019-02-17T01:36:08.293Z,85.91
2019-02-17T01:37:08.258Z,84.86
2019-02-17T01:38:08.216Z,84.77
2019-02-17T01:39:08.175Z,85.05
2019-02-17T01:40:08.132Z,85.91
2019-02-17T01:41:08.092Z,86.57
2019-02-17T01:42:08.054Z,86.95
2019-02-17T01:43:08.006Z,87.47
2019-02-17T01:44:07.968Z,88.13
2019-02-17T01:45:07.930Z,88.33
2019-02-17T01:46:07.886Z,89.28
2019-02-17T01:47:07.925Z,88.71
2019-02-17T01:48:07.808Z,88.33
2019-02-17T01:49:07.766Z,89.28
2019-02-17T01:50:07.726Z,89.09
2019-02-17T01:51:07.690Z,89.28
2019-02-17T01:52:07.647Z,88.90
2019-02-17T01:53:07.605Z,89.09
2019-02-17T01:54:07.569Z,88.75
2019-02-17T01:55:07.520Z,88.42
2019-02-17T01:56:07.481Z,88.52
2019-02-17T01:57:07.442Z,88.42
2019-02-17T01:58:07.401Z,88.42
2019-02-17T01:59:07.427Z,87.19
2019-02-17T02:00:07.323Z,86.80
2019-02-17T02:01:07.286Z,86.33
2019-02-17T02:02:07.244Z,86.71
2019-02-17T02:03:07.196Z,85.57
2019-02-17T02:04:07.159Z,85.57
2019-02-17T02:05:07.121Z,85.28
2019-02-17T02:06:07.083Z,84.81
2019-02-17T02:07:07.035Z,83.76
2019-02-17T02:08:06.997Z,82.71
2019-02-17T02:09:06.962Z,83.58
2019-02-17T02:10:06.913Z,82.91
2019-02-17T02:11:06.877Z,82.34
2019-02-17T02:12:06.835Z,81.77
2019-02-17T02:13:06.803Z,82.62
2019-02-17T02:14:06.764Z,83.67
2019-02-17T02:15:06.713Z,83.19
2019-02-17T02:16:06.671Z,82.62
2019-02-17T02:17:06.637Z,81.77
2019-02-17T02:18:06.588Z,80.96
2019-02-17T02:19:06.555Z,81.06
2019-02-17T02:20:06.511Z,80.87
2019-02-17T02:21:06.469Z,81.16
2019-02-17T02:22:06.429Z,80.87
2019-02-17T02:23:06.392Z,79.73
2019-02-17T02:24:06.348Z,80.11
2019-02-17T02:25:06.308Z,78.97
2019-02-17T02:26:06.272Z,78.59
2019-02-17T02:27:06.229Z,77.64
2019-02-17T02:28:06.186Z,77.92
2019-02-17T02:29:06.146Z,77.92
2019-02-17T02:30:06.125Z,77.83
2019-02-17T02:31:06.068Z,76.97
2019-02-17T02:32:06.025Z,76.18
2019-02-17T02:33:05.986Z,75.51
2019-02-17T02:34:05.945Z,76.08
2019-02-17T02:35:05.898Z,74.85
2019-02-17T02:36:05.859Z,74.27
2019-02-17T02:37:05.821Z,72.28
2019-02-17T02:38:05.781Z,71.43
2019-02-17T02:39:05.742Z,72.09
2019-02-17T02:40:05.698Z,71.90
2019-02-17T02:41:05.656Z,72.38
2019-02-17T02:42:05.613Z,72.19
2019-02-17T02:43:05.597Z,70.67
2019-02-17T02:44:05.541Z,70.19
2019-02-17T02:45:05.493Z,70.00
2019-02-17T02:46:05.456Z,68.19
2019-02-17T02:47:05.410Z,68.39
2019-02-17T02:48:05.369Z,68.29
2019-02-17T02:49:05.349Z,68.86
2019-02-17T02:50:05.291Z,67.15
2019-02-17T02:51:05.257Z,66.67
2019-02-17T02:52:05.223Z,66.20
2019-02-17T02:53:05.165Z,67.44
2019-02-17T02:54:05.121Z,66.11
2019-02-17T02:55:05.089Z,65.82
2019-02-17T02:56:05.043Z,66.77
2019-02-17T02:57:05.003Z,65.63
2019-02-17T02:58:04.966Z,65.35
2019-02-17T02:59:04.923Z,64.49
2019-02-17T03:00:04.877Z,65.73
2019-02-17T03:01:04.836Z,66.77
2019-02-17T03:02:04.793Z,67.15
2019-02-17T03:03:04.763Z,66.87
2019-02-17T03:04:04.717Z,67.63
2019-02-17T03:05:04.675Z,67.63
2019-02-17T03:06:04.638Z,67.44
2019-02-17T03:07:04.591Z,65.92
2019-02-17T03:08:04.549Z,64.40
2019-02-17T03:09:04.510Z,64.49
2019-02-17T03:10:04.472Z,63.45
2019-02-17T03:11:04.424Z,62.88
2019-02-17T03:12:04.386Z,62.78
2019-02-17T03:13:04.344Z,62.97
2019-02-17T03:14:04.302Z,63.45
2019-02-17T03:15:04.265Z,64.40
2019-02-17T03:16:04.223Z,64.21
2019-02-17T03:17:04.184Z,64.59
2019-02-17T03:18:04.146Z,64.49
2019-02-17T03:19:04.100Z,65.06
2019-02-17T03:20:04.057Z,65.25
2019-02-17T03:21:04.014Z,64.30
2019-02-17T03:22:03.975Z,64.02
2019-02-17T03:23:03.936Z,62.88
2019-02-17T03:24:03.897Z,61.65
2019-02-17T03:25:03.852Z,61.26
2019-02-17T03:26:03.815Z,61.93
2019-02-17T03:27:03.772Z,62.12
2019-02-17T03:28:03.732Z,61.36
2019-02-17T03:29:03.692Z,61.65
2019-02-17T03:30:05.546Z,62.12
2019-02-17T03:31:03.611Z,61.55
2019-02-17T03:32:03.564Z,61.93
2019-02-17T03:33:03.530Z,63.54
2019-02-17T03:34:03.505Z,64.11
2019-02-17T03:35:03.443Z,63.04
2019-02-17T03:36:03.417Z,63.04
2019-02-17T03:37:03.363Z,61.99
2019-02-17T03:38:03.321Z,61.83
2019-02-17T03:39:03.275Z,63.04
2019-02-17T03:40:03.236Z,62.18
2019-02-17T03:41:03.201Z,61.80
2019-02-17T03:42:03.155Z,61.33
2019-02-17T03:43:03.112Z,60.50
2019-02-17T03:44:03.068Z,60.22
2019-02-17T03:45:03.027Z,60.76
2019-02-17T03:46:02.990Z,60.69
2019-02-17T03:47:02.952Z,61.36
2019-02-17T03:48:02.913Z,62.59
2019-02-17T03:49:02.871Z,62.97
2019-02-17T03:50:02.828Z,63.73
2019-02-17T04:06:01.261Z,57.53
2019-02-17T04:07:01.262Z,57.72
2019-02-17T04:08:01.170Z,58.48
2019-02-17T04:09:01.094Z,58.76
2019-02-17T04:10:01.060Z,59.91
2019-02-17T04:11:01.011Z,60.28
2019-02-17T04:12:00.964Z,59.05
2019-02-17T04:13:00.928Z,58.86
2019-02-17T04:14:00.882Z,58.67
2019-02-17T04:15:00.836Z,59.71
2019-02-17T04:16:00.792Z,59.81
2019-02-17T04:17:00.754Z,60.00
2019-02-17T04:18:00.711Z,59.14
2019-02-17T04:19:00.669Z,58.76
2019-02-17T04:20:00.647Z,58.20
2019-02-17T04:21:00.640Z,58.39
2019-02-17T04:22:00.540Z,58.95
2019-02-17T04:23:00.498Z,58.95
2019-02-17T04:24:00.487Z,59.24
2019-02-17T04:25:00.417Z,59.33
2019-02-17T04:26:00.404Z,59.52
2019-02-17T04:27:00.331Z,59.43
2019-02-17T04:28:00.292Z,59.71
2019-02-17T04:29:00.246Z,59.52
2019-02-17T04:30:00.480Z,60.00
2019-02-17T04:31:00.166Z,60.10
2019-02-17T04:32:00.126Z,60.00
2019-02-17T04:33:00.077Z,59.52
2019-02-17T04:34:00.038Z,59.81
2019-02-17T04:34:59.996Z,59.62
2019-02-17T04:35:59.959Z,60.10
2019-02-17T04:36:59.916Z,59.91
2019-02-17T04:37:59.872Z,60.38
2019-02-17T04:38:59.837Z,60.76
2019-02-17T04:39:59.793Z,61.52
2019-02-17T04:40:59.747Z,60.76
2019-02-17T04:41:59.706Z,61.14
2019-02-17T04:42:59.665Z,61.42
2019-02-17T04:43:59.623Z,61.33
2019-02-17T04:44:59.589Z,61.23
2019-02-17T04:45:59.541Z,61.04
2019-02-17T04:46:59.499Z,61.42
2019-02-17T04:47:59.456Z,61.33
2019-02-17T04:48:59.423Z,61.42
2019-02-17T04:49:59.375Z,61.14
2019-02-17T04:50:59.337Z,60.85
2019-02-17T04:51:59.296Z,61.14
2019-02-17T04:52:59.259Z,60.85
2019-02-17T04:53:59.208Z,60.57
2019-02-17T04:54:59.170Z,61.52
2019-02-17T04:55:59.125Z,61.99
2019-02-17T04:56:59.089Z,61.80
2019-02-17T04:57:59.045Z,62.18
2019-02-17T04:58:59.004Z,62.66
2019-02-17T04:59:58.965Z,62.46
2019-02-17T05:00:58.917Z,61.99
2019-02-17T05:01:58.876Z,62.56
2019-02-17T05:02:58.842Z,62.18
2019-02-17T05:03:58.811Z,62.18
2019-02-17T05:04:58.756Z,62.08
2019-02-17T05:05:58.715Z,61.23
2019-02-17T05:06:58.671Z,61.42
2019-02-17T05:07:58.629Z,61.42
2019-02-17T05:08:58.591Z,61.23
2019-02-17T05:09:58.549Z,60.76
2019-02-17T05:10:58.508Z,61.23
2019-02-17T05:11:58.467Z,60.76
2019-02-17T05:12:58.421Z,61.14
2019-02-17T05:13:58.381Z,60.00
2019-02-17T05:14:58.339Z,60.47
2019-02-17T05:15:58.298Z,59.62
2019-02-17T05:16:58.261Z,60.00
2019-02-17T05:17:58.218Z,60.10
2019-02-17T05:18:58.176Z,60.10
2019-02-17T05:19:58.135Z,59.71
2019-02-17T05:20:58.100Z,58.00
2019-02-17T05:21:58.053Z,57.62
2019-02-17T05:22:58.012Z,56.58
2019-02-17T05:23:57.982Z,57.15
2019-02-17T05:24:57.938Z,56.77
2019-02-17T05:25:57.884Z,56.77
2019-02-17T05:26:57.843Z,56.58
2019-02-17T05:27:57.800Z,56.68
2019-02-17T05:28:57.764Z,56.39
2019-02-17T05:29:57.721Z,56.49
2019-02-17T05:30:57.688Z,56.49
2019-02-17T05:31:57.644Z,56.68
2019-02-17T05:32:57.593Z,56.39
2019-02-17T05:33:57.553Z,55.63
2019-02-17T05:34:59.048Z,55.73
2019-02-17T05:35:57.473Z,55.54
2019-02-17T05:36:57.426Z,55.06
2019-02-17T05:37:57.387Z,54.78
2019-02-17T05:38:57.350Z,54.37
2019-02-17T05:39:57.303Z,53.52
2019-02-17T05:40:57.266Z,52.56
2019-02-17T05:41:57.223Z,52.66
2019-02-17T05:42:57.185Z,52.19
2019-02-17T05:43:57.142Z,51.90
2019-02-17T05:44:57.095Z,52.37
2019-02-17T05:45:57.055Z,52.37
2019-02-17T05:46:57.020Z,51.72
2019-02-17T05:47:56.974Z,50.67
2019-02-17T05:48:56.937Z,49.72
2019-02-17T05:49:56.892Z,49.15
2019-02-17T05:50:56.849Z,48.86
2019-02-17T05:51:56.804Z,48.39
2019-02-17T05:52:56.769Z,48.20
2019-02-17T05:53:56.726Z,47.06
2019-02-17T05:54:56.686Z,46.97
2019-02-17T05:55:56.645Z,47.25
2019-02-17T05:56:56.598Z,46.88
2019-02-17T05:57:56.556Z,46.69
2019-02-17T05:58:56.515Z,46.49
2019-02-17T05:59:56.471Z,47.06
2019-02-17T06:01:03.278Z,46.97
2019-02-17T06:01:56.392Z,47.34
2019-02-17T06:02:56.352Z,47.82
2019-02-17T06:03:56.315Z,49.05
2019-02-17T06:04:56.265Z,48.68
2019-02-17T06:05:56.225Z,48.20
2019-02-17T06:06:56.185Z,47.82
2019-02-17T06:07:56.165Z,47.82
2019-02-17T06:08:56.098Z,47.82
2019-02-17T06:09:56.057Z,47.73
2019-02-17T06:10:56.017Z,48.20
2019-02-17T06:11:55.973Z,48.11
2019-02-17T06:12:55.938Z,48.68
2019-02-17T06:13:55.896Z,48.77
2019-02-17T06:14:55.852Z,48.77
2019-02-17T06:15:55.815Z,48.68
2019-02-17T06:16:55.768Z,48.77
2019-02-17T06:17:55.726Z,48.49
2019-02-17T06:18:55.684Z,48.39
2019-02-17T06:19:55.640Z,47.44
2019-02-17T06:20:55.607Z,46.88
2019-02-17T06:21:55.562Z,46.69
2019-02-17T06:22:55.521Z,46.49
2019-02-17T06:23:55.477Z,46.78
2019-02-17T06:24:55.436Z,46.40
2019-02-17T06:25:55.397Z,46.30
2019-02-17T06:26:55.352Z,46.40
2019-02-17T06:27:55.315Z,46.40
2019-02-17T06:28:55.267Z,46.30
2019-02-17T06:29:55.225Z,45.64
2019-02-17T06:30:55.183Z,44.88
2019-02-17T06:31:55.140Z,46.59
2019-02-17T06:32:55.104Z,46.40
2019-02-17T06:33:55.060Z,45.92
2019-02-17T06:34:55.020Z,45.73
2019-02-17T06:35:54.981Z,44.21
2019-02-17T06:36:54.935Z,44.69
2019-02-17T06:37:54.892Z,44.21
2019-02-17T06:38:54.852Z,42.60
2019-02-17T06:39:54.813Z,43.65
2019-02-17T06:40:54.777Z,44.21
2019-02-17T06:41:54.726Z,44.21
2019-02-17T06:42:54.684Z,44.60
2019-02-17T06:43:54.643Z,45.45
2019-02-17T06:44:54.609Z,44.98
2019-02-17T06:45:54.560Z,45.83
2019-02-17T06:46:54.517Z,45.83
2019-02-17T06:47:54.484Z,46.02
2019-02-17T06:48:54.430Z,47.34
2019-02-17T06:49:54.390Z,47.63
2019-02-17T06:50:54.349Z,48.77
2019-02-17T06:51:54.305Z,49.43
2019-02-17T06:52:54.269Z,46.78
2019-02-17T06:53:54.225Z,49.24
2019-02-17T06:54:54.185Z,49.34
2019-02-17T06:55:54.139Z,47.92
2019-02-17T06:56:54.104Z,48.96
2019-02-17T06:57:54.058Z,49.24
2019-02-17T06:58:54.019Z,49.05
2019-02-17T06:59:53.977Z,48.39
2019-02-17T07:00:53.931Z,49.34
2019-02-17T07:01:53.892Z,50.29
2019-02-17T07:02:53.851Z,51.90
2019-02-17T07:03:53.808Z,52.66
2019-02-17T07:04:53.801Z,53.45
2019-02-17T07:05:53.741Z,54.68
2019-02-17T07:06:53.697Z,54.58
2019-02-17T07:07:53.645Z,56.39
2019-02-17T07:08:53.647Z,57.06
2019-02-17T07:09:53.554Z,57.24
2019-02-17T07:10:53.520Z,58.20
2019-02-17T07:11:53.476Z,58.95
2019-02-17T07:12:53.432Z,58.86
2019-02-17T07:13:53.388Z,58.86
2019-02-17T07:14:53.347Z,58.76
2019-02-17T07:15:53.306Z,57.15
2019-02-17T07:16:53.266Z,57.24
2019-02-17T07:17:53.227Z,58.48
2019-02-17T07:18:53.188Z,56.96
2019-02-17T07:19:53.142Z,56.96
2019-02-17T07:20:53.098Z,58.48
2019-02-17T07:21:53.054Z,59.43
2019-02-17T07:22:53.015Z,58.95
2019-02-17T07:23:52.979Z,59.91
2019-02-17T07:24:52.934Z,60.28
2019-02-17T07:25:52.894Z,60.10
2019-02-17T07:26:52.848Z,60.10
2019-02-17T07:27:52.808Z,59.33
2019-02-17T07:28:52.768Z,59.33
2019-02-17T07:29:52.729Z,59.65
2019-02-17T07:30:52.686Z,61.36
2019-02-17T07:31:52.644Z,60.13
2019-02-17T07:32:52.601Z,61.26
2019-02-17T07:33:52.560Z,64.30
2019-02-17T07:34:52.522Z,64.02
2019-02-17T07:35:52.479Z,65.16
2019-02-17T07:36:52.436Z,64.87
2019-02-17T07:37:52.397Z,66.87
2019-02-17T07:38:52.359Z,66.30
2019-02-17T07:39:52.312Z,69.62
2019-02-17T07:40:52.271Z,69.24
2019-02-17T07:41:52.226Z,68.04
2019-02-17T07:42:52.197Z,71.08
2019-02-17T07:43:52.148Z,74.31
2019-02-17T07:44:52.104Z,73.93
2019-02-17T07:45:52.062Z,74.22
2019-02-17T07:46:52.019Z,75.93
2019-02-17T07:47:51.980Z,81.06
2019-02-17T07:48:51.940Z,79.30
2019-02-17T07:49:51.901Z,78.16
2019-02-17T07:50:51.862Z,78.44
2019-02-17T07:51:51.818Z,77.11
2019-02-17T07:52:51.774Z,78.25
2019-02-17T07:53:51.731Z,78.06
2019-02-17T07:54:51.690Z,79.30
2019-02-17T07:55:51.652Z,80.91
2019-02-17T07:56:51.616Z,80.05
2019-02-17T07:57:51.573Z,80.82
2019-02-17T07:58:51.527Z,83.58
2019-02-17T07:59:51.488Z,83.95
2019-02-17T08:00:51.448Z,83.29
2019-02-17T08:01:51.410Z,85.76
2019-02-17T08:02:51.370Z,85.95
2019-02-17T08:03:51.328Z,85.33
2019-02-17T08:04:51.284Z,85.61
2019-02-17T08:05:51.243Z,86.57
2019-02-17T08:06:51.201Z,85.33
2019-02-17T08:07:51.165Z,85.04
2019-02-17T08:08:51.123Z,84.56
2019-02-17T08:09:51.085Z,84.95
2019-02-17T08:10:51.048Z,84.00
2019-02-17T08:11:51.001Z,83.33
2019-02-17T08:12:50.963Z,84.09
2019-02-17T08:13:50.916Z,85.90
2019-02-17T08:14:50.882Z,84.47
2019-02-17T08:15:50.841Z,83.81
2019-02-17T08:16:50.798Z,83.90
2019-02-17T08:17:50.754Z,86.76
2019-02-17T08:18:50.715Z,84.19
2019-02-17T08:19:50.678Z,84.09
2019-02-17T08:20:50.639Z,84.85
2019-02-17T08:21:50.659Z,85.42
2019-02-17T08:22:50.559Z,83.71
2019-02-17T08:23:50.518Z,83.62
2019-02-17T08:24:50.474Z,88.37
2019-02-17T08:25:50.434Z,87.32
2019-02-17T08:26:50.395Z,85.42
2019-02-17T08:27:50.353Z,84.85
2019-02-17T08:28:50.315Z,84.00
2019-02-17T08:29:50.277Z,86.18
2019-02-17T08:30:50.230Z,84.09
2019-02-17T08:31:55.827Z,87.13
2019-02-17T08:32:50.154Z,84.52
2019-02-17T08:33:50.116Z,86.70
2019-02-17T08:34:50.077Z,91.37
2019-02-17T08:35:50.034Z,89.27
2019-02-17T08:36:49.995Z,91.65
2019-02-17T08:37:49.968Z,90.32
2019-02-17T08:38:49.911Z,92.79
2019-02-17T08:39:49.873Z,95.27
2019-02-17T08:40:49.834Z,93.65
2019-02-17T08:41:49.796Z,92.60
2019-02-17T08:42:49.759Z,92.89
2019-02-17T08:43:49.714Z,92.55
2019-02-17T08:44:49.673Z,94.65
2019-02-17T08:45:49.633Z,95.32
2019-02-17T08:46:49.597Z,94.93
2019-02-17T08:47:49.554Z,93.98
2019-02-17T08:48:49.512Z,93.22
2019-02-17T08:49:49.474Z,96.36
2019-02-17T08:50:49.432Z,95.41
2019-02-17T08:51:49.395Z,95.22
2019-02-17T08:52:49.373Z,95.12
2019-02-17T08:53:49.321Z,96.17
2019-02-17T08:54:49.278Z,95.79
2019-02-17T08:55:49.237Z,96.89
2019-02-17T08:56:49.196Z,94.89
2019-02-17T08:57:49.153Z,96.32
2019-02-17T08:58:49.114Z,95.46
2019-02-17T08:59:49.077Z,97.65
2019-02-17T09:00:49.039Z,96.60
2019-02-17T09:01:49.003Z,96.60
2019-02-17T09:02:48.957Z,97.56
2019-02-17T09:03:48.918Z,95.56
2019-02-17T09:04:48.881Z,96.51
2019-02-17T09:05:48.845Z,95.46
2019-02-17T09:06:48.804Z,96.60
2019-02-17T09:07:48.763Z,96.70
2019-02-17T09:08:48.744Z,96.60
2019-02-17T09:09:48.679Z,97.17
2019-02-17T09:10:48.640Z,96.51
2019-02-17T09:11:48.604Z,97.08
2019-02-17T09:12:48.567Z,96.84
2019-02-17T09:13:48.532Z,97.08
2019-02-17T09:14:48.491Z,96.56
2019-02-17T09:15:48.451Z,96.36
2019-02-17T09:16:48.446Z,95.89
2019-02-17T09:17:48.382Z,95.79
2019-02-17T09:18:48.336Z,95.70
2019-02-17T09:19:48.293Z,94.93
2019-02-17T09:20:48.253Z,93.32
2019-02-17T09:21:48.215Z,93.03
2019-02-17T09:22:48.173Z,93.88
2019-02-17T09:23:48.135Z,93.27
2019-02-17T09:24:48.098Z,91.64
2019-02-17T09:25:48.061Z,88.98
2019-02-17T09:26:48.025Z,89.45
2019-02-17T09:27:47.982Z,90.12
2019-02-17T09:28:48.114Z,88.31
2019-02-17T09:29:47.903Z,89.26
2019-02-17T09:30:47.983Z,88.40
2019-02-17T09:31:48.011Z,87.74
2019-02-17T09:32:48.008Z,84.88
2019-02-17T09:33:48.058Z,80.01
2019-02-17T09:34:47.707Z,78.52
2019-02-17T09:35:47.670Z,82.34
2019-02-17T09:36:47.634Z,80.62
2019-02-17T09:37:47.598Z,82.43
2019-02-17T09:38:47.568Z,81.58
2019-02-17T09:39:47.524Z,78.72
2019-02-17T09:40:47.476Z,78.62
2019-02-17T09:41:47.437Z,76.52
2019-02-17T09:42:47.400Z,78.52
2019-02-17T09:43:47.362Z,81.48
2019-02-17T09:44:47.326Z,78.62
2019-02-17T09:45:47.292Z,92.17
2019-02-17T09:46:47.250Z,91.41
2019-02-17T09:47:47.210Z,89.97
2019-02-17T09:48:47.169Z,84.16
2019-02-17T09:49:47.129Z,91.02
2019-02-17T09:50:47.098Z,84.06
2019-02-17T09:51:47.059Z,82.63
2019-02-17T09:52:47.038Z,88.92
2019-02-17T09:53:47.014Z,87.68
2019-02-17T09:54:46.939Z,84.63
2019-02-17T09:55:46.987Z,85.77
2019-02-17T09:56:46.868Z,81.38
2019-02-17T09:57:46.829Z,78.23
2019-02-17T09:58:46.792Z,82.15
2019-02-17T09:59:46.984Z,76.52
2019-02-17T10:00:46.711Z,78.23
2019-02-17T10:01:46.672Z,76.04
2019-02-17T10:02:46.633Z,75.28
2019-02-17T10:03:46.604Z,78.62
2019-02-17T10:04:46.562Z,75.76
2019-02-17T10:18:55.612Z,65.58
2019-02-17T10:19:55.540Z,64.43
2019-02-17T10:20:55.506Z,64.09
2019-02-17T10:21:55.459Z,63.99
2019-02-17T10:22:55.464Z,64.28
2019-02-17T10:23:55.379Z,63.51
2019-02-17T10:24:55.335Z,65.42
2019-02-17T10:25:56.518Z,64.37
2019-02-17T10:26:55.255Z,63.13
2019-02-17T10:27:55.217Z,63.23
2019-02-17T10:28:55.172Z,63.13
2019-02-17T10:29:55.133Z,61.92
2019-02-17T10:30:55.096Z,62.97
2019-02-17T10:31:55.054Z,62.59
2019-02-17T10:32:55.022Z,61.35
2019-02-17T10:33:54.983Z,60.39
2019-02-17T10:34:54.944Z,60.20
2019-02-17T10:35:54.909Z,61.06
2019-02-17T10:36:54.862Z,60.58
2019-02-17T10:37:54.827Z,61.16
2019-02-17T10:38:54.786Z,60.49
2019-02-17T10:39:54.747Z,61.35
2019-02-17T10:40:54.715Z,61.35
2019-02-17T10:41:54.679Z,61.35
2019-02-17T10:42:54.633Z,60.58
2019-02-17T10:43:54.594Z,61.06
2019-02-17T10:44:54.562Z,61.16
2019-02-17T10:45:54.523Z,58.95
2019-02-17T10:46:54.485Z,57.90
2019-02-17T10:47:54.449Z,58.38
2019-02-17T10:48:54.406Z,60.77
2019-02-17T10:49:54.370Z,59.63
2019-02-17T10:50:54.332Z,59.15
2019-02-17T10:51:54.293Z,59.05
2019-02-17T10:52:54.261Z,57.62
2019-02-17T10:53:54.222Z,59.08
2019-02-17T10:54:54.186Z,57.71
2019-02-17T10:55:54.148Z,56.69
2019-02-17T10:56:54.105Z,55.83
2019-02-17T10:57:54.071Z,57.07
2019-02-17T10:58:54.036Z,55.74
2019-02-17T10:59:55.939Z,53.53
2019-02-17T11:00:53.961Z,52.87
2019-02-17T11:01:53.922Z,52.87
2019-02-17T11:02:53.885Z,53.63
2019-02-17T11:03:53.844Z,53.92
2019-02-17T11:04:53.815Z,52.87
2019-02-17T11:05:53.796Z,51.81
2019-02-17T11:06:53.737Z,52.10
2019-02-17T11:07:57.550Z,50.95
2019-02-17T11:08:53.664Z,51.65
2019-02-17T11:09:53.627Z,50.98
2019-02-17T11:10:53.588Z,50.89
2019-02-17T11:11:53.550Z,51.27
2019-02-17T11:12:53.532Z,51.84
2019-02-17T11:13:53.480Z,53.75
2019-02-17T11:14:53.442Z,52.80
2019-02-17T11:15:53.403Z,51.56
2019-02-17T11:16:53.371Z,52.03
2019-02-17T11:17:53.333Z,51.07
2019-02-17T11:18:53.295Z,50.89
2019-02-17T11:19:53.262Z,50.70
2019-02-17T11:20:53.220Z,50.21
2019-02-17T11:21:53.185Z,52.32
2019-02-17T11:22:53.147Z,50.24
2019-02-17T11:23:53.109Z,50.52
2019-02-17T11:24:53.080Z,51.01
2019-02-17T11:25:53.039Z,51.46
2019-02-17T11:26:53.005Z,51.93
2019-02-17T11:27:52.965Z,51.36
2019-02-17T11:28:52.926Z,51.29
2019-02-17T11:29:52.891Z,50.43
2019-02-17T11:30:52.857Z,50.52
2019-02-17T11:31:52.822Z,50.72
2019-02-17T11:32:57.830Z,49.48
2019-02-17T11:33:52.744Z,50.15
2019-02-17T11:34:52.706Z,50.24
2019-02-17T11:35:52.673Z,51.01
2019-02-17T11:36:52.640Z,51.01
2019-02-17T11:37:52.608Z,50.81
2019-02-17T11:38:52.568Z,51.48
2019-02-17T11:39:52.529Z,50.34
2019-02-17T11:40:52.488Z,50.24
2019-02-17T11:41:52.454Z,49.21
2019-02-17T11:42:52.418Z,49.02
2019-02-17T11:43:52.382Z,49.60
2019-02-17T11:44:52.351Z,49.02
2019-02-17T11:45:52.313Z,47.42
2019-02-17T11:46:52.272Z,47.32
2019-02-17T11:47:52.236Z,47.32
2019-02-17T11:48:52.476Z,46.26
2019-02-17T11:49:52.169Z,45.89
2019-02-17T11:50:52.131Z,47.03
2019-02-17T11:51:52.101Z,46.55
2019-02-17T11:52:52.056Z,45.21
2019-02-17T11:53:52.021Z,44.93
2019-02-17T11:54:51.988Z,44.73
2019-02-17T11:55:51.947Z,44.45
2019-02-17T11:56:51.918Z,44.45
2019-02-17T11:57:51.881Z,43.77
2019-02-17T11:58:51.843Z,44.45
2019-02-17T11:59:52.002Z,43.77
2019-02-17T12:00:51.771Z,44.26
2019-02-17T12:01:51.735Z,43.49
2019-02-17T12:02:51.783Z,42.84
2019-02-17T12:03:51.668Z,43.13
2019-02-17T12:04:51.650Z,43.87
2019-02-17T12:05:51.592Z,42.34
2019-02-17T12:06:51.558Z,41.67
2019-02-17T12:07:51.539Z,41.96
2019-02-17T12:08:51.492Z,42.63
2019-02-17T12:09:51.452Z,41.86
2019-02-17T12:10:51.416Z,41.21
2019-02-17T12:11:51.385Z,40.23
2019-02-17T12:12:51.342Z,39.94
2019-02-17T12:13:51.308Z,39.75
2019-02-17T12:14:51.273Z,40.61
2019-02-17T12:15:51.235Z,39.75
2019-02-17T12:16:51.206Z,38.62
2019-02-17T12:17:51.169Z,38.62
2019-02-17T12:18:51.134Z,39.48
2019-02-17T12:19:51.094Z,39.20
2019-02-17T12:20:51.065Z,38.72
2019-02-17T12:21:51.029Z,38.64
2019-02-17T12:22:50.994Z,37.18
2019-02-17T12:23:50.958Z,37.18
2019-02-17T12:24:50.919Z,37.28
2019-02-17T12:25:50.885Z,35.84
2019-02-17T12:26:50.886Z,35.84
2019-02-17T12:27:50.821Z,36.34
2019-02-17T12:28:50.787Z,37.11
2019-02-17T12:29:50.746Z,36.13
2019-02-17T12:30:50.745Z,35.55
2019-02-17T12:31:50.701Z,35.19
2019-02-17T12:32:50.667Z,34.42
2019-02-17T12:33:50.653Z,35.36
2019-02-17T12:34:50.619Z,35.55
2019-02-17T12:35:50.534Z,34.69
2019-02-17T12:36:50.508Z,34.61
2019-02-17T12:37:50.507Z,34.81
2019-02-17T12:38:50.431Z,35.77
2019-02-17T12:39:50.400Z,34.98
2019-02-17T12:40:50.359Z,34.50
2019-02-17T12:41:50.327Z,34.42
2019-02-17T12:42:51.149Z,33.37
2019-02-17T12:43:50.253Z,32.60
2019-02-17T12:44:50.224Z,32.81
2019-02-17T12:45:50.190Z,31.75
2019-02-17T12:46:50.153Z,32.14
2019-02-17T12:47:57.571Z,32.81
2019-02-17T12:48:50.119Z,32.81
2019-02-17T12:49:50.050Z,32.62
2019-02-17T12:50:50.013Z,33.00
2019-02-17T12:51:49.981Z,31.84
2019-02-17T12:52:49.941Z,31.26
2019-02-17T12:53:49.908Z,31.26
2019-02-17T12:54:49.873Z,31.27
2019-02-17T12:55:49.836Z,31.93
2019-02-17T12:56:49.807Z,31.46
2019-02-17T12:57:49.772Z,31.54
2019-02-17T12:58:49.735Z,31.45
2019-02-17T12:59:49.703Z,31.84
2019-02-17T13:00:49.663Z,32.03
2019-02-17T13:01:49.630Z,31.46
2019-02-17T13:02:49.595Z,31.46
2019-02-17T13:03:49.559Z,30.79
2019-02-17T13:04:49.534Z,30.79
2019-02-17T13:05:49.495Z,30.89
2019-02-17T13:06:49.458Z,30.71
2019-02-17T13:07:49.420Z,31.85
2019-02-17T13:08:49.392Z,32.04
2019-02-17T13:09:49.355Z,31.56
2019-02-17T13:10:49.323Z,31.75
2019-02-17T13:11:49.344Z,31.66
2019-02-17T13:12:49.249Z,31.37
2019-02-17T13:13:49.219Z,32.52
2019-02-17T13:14:49.181Z,32.42
2019-02-17T13:15:49.143Z,32.33
2019-02-17T13:16:49.116Z,32.33
2019-02-17T13:17:49.088Z,31.56
2019-02-17T13:18:49.045Z,31.56
2019-02-17T13:19:49.012Z,31.66